Yukichifuku — JD3610 — position and weather

sailwx.info

Track history (hours):
 
Tides and Currents Weather Stations Pressure Air Temp Water Temp Dewpoint Dewpoint Depression Visibility Wind Speed Wind Dir Waves Ship Positions

Yukichifuku

Last reported at 2017-Oct-20 19:49 UTC. Time now 2017-Oct-22 23:04 UTC.
Position N 34°41' E 135°24'.

Length 49 m.

Type: Cargo ship. MMSI: 431005126.

Date/timePositionNaut miles runAvg speedWind from/ knotsBaromVisibWave heightAir tempDewpointWater temp
2017-Oct-20 19:49N 34°41' E 135°24'3 9.9
2017-Oct-20 19:30N 34°40' E 135°20'510.0
2017-Oct-20 19:00N 34°38' E 135°14'5 9.7
2017-Oct-20 18:30N 34°37' E 135°09'3 0.2
2017-Oct-20 02:53N 34°37' E 135°05'411.4
2017-Oct-20 02:30N 34°37' E 135°10'611.2
2017-Oct-20 01:59N 34°38' E 135°17'7 1.1
2017-Oct-19 20:11N 34°41' E 135°24'2 9.4
2017-Oct-19 20:00N 34°40' E 135°22'510.0
2017-Oct-19 19:30N 34°38' E 135°17'12 0.6
2017-Oct-19 01:43N 34°37' E 135°03'311.5
2017-Oct-19 01:27N 34°37' E 135°06'511.9
2017-Oct-19 01:00N 34°38' E 135°13'611.3
2017-Oct-19 00:29N 34°39' E 135°20'1 0.0
2017-Oct-18 04:23N 34°39' E 135°19'4 9.9
2017-Oct-18 03:58N 34°38' E 135°14'6 9.9
2017-Oct-18 03:22N 34°37' E 135°07'1 0.0
2017-Oct-17 06:17N 34°37' E 135°06'311.5
2017-Oct-17 06:00N 34°37' E 135°10'611.1
2017-Oct-17 05:30N 34°38' E 135°17'7 0.7
2017-Oct-16 19:58N 34°41' E 135°24'510.0
2017-Oct-16 19:30N 34°39' E 135°19'510.2
2017-Oct-16 19:00N 34°37' E 135°13'510.3
2017-Oct-16 18:30N 34°36' E 135°07'1 0.1
2017-Oct-16 02:58N 34°37' E 135°05'511.0
2017-Oct-16 02:29N 34°37' E 135°12'611.5
2017-Oct-16 02:00N 34°39' E 135°18'5 0.6
2017-Oct-15 17:36N 34°41' E 135°24'1 9.7
2017-Oct-15 17:30N 34°40' E 135°23'510.1
2017-Oct-15 17:00N 34°38' E 135°18'510.1
2017-Oct-15 16:30N 34°37' E 135°12'510.0
2017-Oct-15 16:00N 34°37' E 135°06'0 0.0
2017-Oct-15 02:46N 34°37' E 135°05'311.0
2017-Oct-15 02:30N 34°37' E 135°09'611.6
2017-Oct-15 02:00N 34°38' E 135°15'8 0.6
2017-Oct-14 13:27N 34°41' E 135°24'4 9.3
2017-Oct-14 12:58N 34°39' E 135°19'510.2
2017-Oct-14 12:29N 34°37' E 135°14'510.0
2017-Oct-14 12:00N 34°37' E 135°08'2 0.3
2017-Oct-14 04:19N 34°37' E 135°05'411.4
2017-Oct-14 04:00N 34°37' E 135°10'611.2
2017-Oct-14 03:29N 34°38' E 135°17'5 0.9
2017-Oct-13 21:28N 34°40' E 135°23'510.2
2017-Oct-13 20:59N 34°39' E 135°17'510.1
2017-Oct-13 20:30N 34°37' E 135°11'6 0.4
2017-Oct-13 06:33N 34°37' E 135°04'111.5
2017-Oct-13 06:27N 34°37' E 135°06'511.4
2017-Oct-13 06:00N 34°37' E 135°12'510.9
2017-Oct-13 05:30N 34°39' E 135°18'6 0.5
2017-Oct-12 19:20N 34°41' E 135°24'3 8.8
2017-Oct-12 19:00N 34°40' E 135°21'5 9.7
2017-Oct-12 18:30N 34°38' E 135°16'5 9.9
2017-Oct-12 18:00N 34°37' E 135°10'  
Track history (hours):
 
Tides and Currents Weather Stations Pressure Air Temp Water Temp Dewpoint Dewpoint Depression Visibility Wind Speed Wind Dir Waves Ship Positions

Yukichifuku

Last reported at 2017-Oct-20 19:49 UTC. Time now 2017-Oct-22 23:04 UTC.
Position N 34°41' E 135°24'.

Length 49 m.

Type: Cargo ship. MMSI: 431005126.

Date/timePositionNaut miles runAvg speedWind from/ knotsBaromVisibWave heightAir tempDewpointWater temp
2017-Oct-20 19:49N 34°41' E 135°24'3 9.9
2017-Oct-20 19:30N 34°40' E 135°20'510.0
2017-Oct-20 19:00N 34°38' E 135°14'5 9.7
2017-Oct-20 18:30N 34°37' E 135°09'3 0.2
2017-Oct-20 02:53N 34°37' E 135°05'411.4
2017-Oct-20 02:30N 34°37' E 135°10'611.2
2017-Oct-20 01:59N 34°38' E 135°17'7 1.1
2017-Oct-19 20:11N 34°41' E 135°24'2 9.4
2017-Oct-19 20:00N 34°40' E 135°22'510.0
2017-Oct-19 19:30N 34°38' E 135°17'12 0.6
2017-Oct-19 01:43N 34°37' E 135°03'311.5
2017-Oct-19 01:27N 34°37' E 135°06'511.9
2017-Oct-19 01:00N 34°38' E 135°13'611.3
2017-Oct-19 00:29N 34°39' E 135°20'1 0.0
2017-Oct-18 04:23N 34°39' E 135°19'4 9.9
2017-Oct-18 03:58N 34°38' E 135°14'6 9.9
2017-Oct-18 03:22N 34°37' E 135°07'1 0.0
2017-Oct-17 06:17N 34°37' E 135°06'311.5
2017-Oct-17 06:00N 34°37' E 135°10'611.1
2017-Oct-17 05:30N 34°38' E 135°17'7 0.7
2017-Oct-16 19:58N 34°41' E 135°24'510.0
2017-Oct-16 19:30N 34°39' E 135°19'510.2
2017-Oct-16 19:00N 34°37' E 135°13'510.3
2017-Oct-16 18:30N 34°36' E 135°07'1 0.1
2017-Oct-16 02:58N 34°37' E 135°05'511.0
2017-Oct-16 02:29N 34°37' E 135°12'611.5
2017-Oct-16 02:00N 34°39' E 135°18'5 0.6
2017-Oct-15 17:36N 34°41' E 135°24'1 9.7
2017-Oct-15 17:30N 34°40' E 135°23'510.1
2017-Oct-15 17:00N 34°38' E 135°18'510.1
2017-Oct-15 16:30N 34°37' E 135°12'510.0
2017-Oct-15 16:00N 34°37' E 135°06'0 0.0
2017-Oct-15 02:46N 34°37' E 135°05'311.0
2017-Oct-15 02:30N 34°37' E 135°09'611.6
2017-Oct-15 02:00N 34°38' E 135°15'8 0.6
2017-Oct-14 13:27N 34°41' E 135°24'4 9.3
2017-Oct-14 12:58N 34°39' E 135°19'510.2
2017-Oct-14 12:29N 34°37' E 135°14'510.0
2017-Oct-14 12:00N 34°37' E 135°08'2 0.3
2017-Oct-14 04:19N 34°37' E 135°05'411.4
2017-Oct-14 04:00N 34°37' E 135°10'611.2
2017-Oct-14 03:29N 34°38' E 135°17'5 0.9
2017-Oct-13 21:28N 34°40' E 135°23'510.2
2017-Oct-13 20:59N 34°39' E 135°17'510.1
2017-Oct-13 20:30N 34°37' E 135°11'6 0.4
2017-Oct-13 06:33N 34°37' E 135°04'111.5
2017-Oct-13 06:27N 34°37' E 135°06'511.4
2017-Oct-13 06:00N 34°37' E 135°12'510.9
2017-Oct-13 05:30N 34°39' E 135°18'6 0.5
2017-Oct-12 19:20N 34°41' E 135°24'3 8.8
2017-Oct-12 19:00N 34°40' E 135°21'5 9.7
2017-Oct-12 18:30N 34°38' E 135°16'5 9.9
2017-Oct-12 18:00N 34°37' E 135°10'  

Dump ship's entire track history